sensor_id;sensor_type;location;lat;lon;timestamp;pressure;altitude;pressure_sealevel;temperature;humidity
4044;BME280;2036;51.578;7.108;2022-07-25T00:01:05;100382.28;;;22.67;100.00
4044;BME280;2036;51.578;7.108;2022-07-25T00:03:31;100368.91;;;22.67;100.00
4044;BME280;2036;51.578;7.108;2022-07-25T00:05:57;100376.03;;;22.60;100.00
4044;BME280;2036;51.578;7.108;2022-07-25T00:08:23;100369.44;;;22.56;100.00
4044;BME280;2036;51.578;7.108;2022-07-25T00:10:48;100361.81;;;22.53;100.00
4044;BME280;2036;51.578;7.108;2022-07-25T00:13:14;100355.84;;;22.51;100.00
4044;BME280;2036;51.578;7.108;2022-07-25T00:15:40;100355.63;;;22.45;100.00
4044;BME280;2036;51.578;7.108;2022-07-25T00:18:06;100350.88;;;22.41;100.00
4044;BME280;2036;51.578;7.108;2022-07-25T00:20:32;100348.78;;;22.36;100.00
4044;BME280;2036;51.578;7.108;2022-07-25T00:22:58;100336.44;;;22.35;100.00
4044;BME280;2036;51.578;7.108;2022-07-25T00:25:24;100330.28;;;22.35;100.00
4044;BME280;2036;51.578;7.108;2022-07-25T00:27:49;100330.28;;;22.35;100.00
4044;BME280;2036;51.578;7.108;2022-07-25T00:30:15;100328.84;;;22.32;100.00
4044;BME280;2036;51.578;7.108;2022-07-25T00:32:41;100330.66;;;22.32;100.00
4044;BME280;2036;51.578;7.108;2022-07-25T00:35:07;100334.72;;;22.21;100.00
4044;BME280;2036;51.578;7.108;2022-07-25T00:37:33;100333.72;;;22.22;100.00
4044;BME280;2036;51.578;7.108;2022-07-25T00:39:59;100326.28;;;22.18;100.00
4044;BME280;2036;51.578;7.108;2022-07-25T00:42:25;100323.00;;;22.16;100.00
4044;BME280;2036;51.578;7.108;2022-07-25T00:44:51;100327.47;;;22.09;100.00
4044;BME280;2036;51.578;7.108;2022-07-25T00:47:17;100320.69;;;22.06;100.00
4044;BME280;2036;51.578;7.108;2022-07-25T00:49:43;100324.56;;;22.04;100.00
4044;BME280;2036;51.578;7.108;2022-07-25T00:52:09;100319.81;;;21.99;100.00
4044;BME280;2036;51.578;7.108;2022-07-25T00:54:35;100326.75;;;21.94;100.00
4044;BME280;2036;51.578;7.108;2022-07-25T00:57:01;100306.44;;;21.93;100.00
4044;BME280;2036;51.578;7.108;2022-07-25T00:59:26;100306.19;;;21.88;100.00
4044;BME280;2036;51.578;7.108;2022-07-25T01:01:53;100318.72;;;21.87;100.00
4044;BME280;2036;51.578;7.108;2022-07-25T01:04:19;100316.38;;;21.77;100.00
4044;BME280;2036;51.578;7.108;2022-07-25T01:06:45;100316.78;;;21.81;100.00
4044;BME280;2036;51.578;7.108;2022-07-25T01:09:12;100312.03;;;21.76;100.00
4044;BME280;2036;51.578;7.108;2022-07-25T01:11:39;100306.06;;;21.74;100.00
4044;BME280;2036;51.578;7.108;2022-07-25T01:14:05;100309.16;;;21.71;100.00
4044;BME280;2036;51.578;7.108;2022-07-25T01:16:33;100311.16;;;21.69;100.00
4044;BME280;2036;51.578;7.108;2022-07-25T01:19:02;100310.75;;;21.66;100.00
4044;BME280;2036;51.578;7.108;2022-07-25T01:21:30;100306.00;;;21.61;100.00
4044;BME280;2036;51.578;7.108;2022-07-25T01:23:57;100309.41;;;21.55;100.00
4044;BME280;2036;51.578;7.108;2022-07-25T01:26:22;100307.16;;;21.52;100.00
4044;BME280;2036;51.578;7.108;2022-07-25T01:28:48;100311.66;;;21.52;100.00
4044;BME280;2036;51.578;7.108;2022-07-25T01:31:14;100303.41;;;21.47;100.00
4044;BME280;2036;51.578;7.108;2022-07-25T01:33:40;100302.16;;;21.43;100.00
4044;BME280;2036;51.578;7.108;2022-07-25T01:36:06;100300.50;;;21.42;100.00
4044;BME280;2036;51.578;7.108;2022-07-25T01:38:32;100302.75;;;21.38;100.00
4044;BME280;2036;51.578;7.108;2022-07-25T01:40:58;100294.50;;;21.33;98.66
4044;BME280;2036;51.578;7.108;2022-07-25T01:43:24;100301.63;;;21.26;100.00
4044;BME280;2036;51.578;7.108;2022-07-25T01:45:55;100302.00;;;21.23;100.00
4044;BME280;2036;51.578;7.108;2022-07-25T01:48:21;100297.22;;;21.19;100.00
4044;BME280;2036;51.578;7.108;2022-07-25T01:50:47;100293.94;;;21.17;100.00
4044;BME280;2036;51.578;7.108;2022-07-25T01:53:13;100300.69;;;21.13;100.00
4044;BME280;2036;51.578;7.108;2022-07-25T01:55:39;100289.34;;;21.10;100.00
4044;BME280;2036;51.578;7.108;2022-07-25T01:58:05;100294.06;;;21.08;100.00
4044;BME280;2036;51.578;7.108;2022-07-25T02:00:31;100296.09;;;21.06;100.00
4044;BME280;2036;51.578;7.108;2022-07-25T02:02:57;100288.22;;;20.98;100.00
4044;BME280;2036;51.578;7.108;2022-07-25T02:05:42;100283.25;;;20.95;100.00
4044;BME280;2036;51.578;7.108;2022-07-25T02:08:10;100282.00;;;20.91;100.00
4044;BME280;2036;51.578;7.108;2022-07-25T02:10:36;100282.00;;;20.91;100.00
4044;BME280;2036;51.578;7.108;2022-07-25T02:13:01;100281.16;;;20.91;100.00
4044;BME280;2036;51.578;7.108;2022-07-25T02:15:27;100276.41;;;20.86;100.00
4044;BME280;2036;51.578;7.108;2022-07-25T02:17:53;100272.63;;;20.81;100.00
4044;BME280;2036;51.578;7.108;2022-07-25T02:20:19;100275.50;;;20.79;100.00
4044;BME280;2036;51.578;7.108;2022-07-25T02:22:45;100258.22;;;20.75;100.00
4044;BME280;2036;51.578;7.108;2022-07-25T02:25:11;100267.25;;;20.74;100.00
4044;BME280;2036;51.578;7.108;2022-07-25T02:27:37;100262.47;;;20.70;100.00
4044;BME280;2036;51.578;7.108;2022-07-25T02:30:05;100261.41;;;20.64;100.00
4044;BME280;2036;51.578;7.108;2022-07-25T02:32:31;100256.91;;;20.65;100.00
4044;BME280;2036;51.578;7.108;2022-07-25T02:34:57;100257.91;;;20.64;100.00
4044;BME280;2036;51.578;7.108;2022-07-25T02:37:23;100260.97;;;20.61;100.00
4044;BME280;2036;51.578;7.108;2022-07-25T02:39:49;100258.66;;;20.58;100.00
4044;BME280;2036;51.578;7.108;2022-07-25T02:42:15;100250.22;;;20.54;100.00
4044;BME280;2036;51.578;7.108;2022-07-25T02:44:41;100251.41;;;20.52;100.00
4044;BME280;2036;51.578;7.108;2022-07-25T02:47:07;100254.84;;;20.45;100.00
4044;BME280;2036;51.578;7.108;2022-07-25T02:49:33;100247.22;;;20.42;100.00
4044;BME280;2036;51.578;7.108;2022-07-25T02:51:58;100248.63;;;20.38;100.00
4044;BME280;2036;51.578;7.108;2022-07-25T02:54:24;100237.31;;;20.36;100.00
4044;BME280;2036;51.578;7.108;2022-07-25T02:56:50;100237.94;;;20.38;100.00
4044;BME280;2036;51.578;7.108;2022-07-25T02:59:16;100232.63;;;20.38;100.00
4044;BME280;2036;51.578;7.108;2022-07-25T03:01:42;100230.78;;;20.39;100.00
4044;BME280;2036;51.578;7.108;2022-07-25T03:04:08;100232.63;;;20.38;100.00
4044;BME280;2036;51.578;7.108;2022-07-25T03:06:34;100231.16;;;20.36;100.00
4044;BME280;2036;51.578;7.108;2022-07-25T03:09:03;100230.31;;;20.35;100.00
4044;BME280;2036;51.578;7.108;2022-07-25T03:11:30;100219.66;;;20.35;100.00
4044;BME280;2036;51.578;7.108;2022-07-25T03:13:58;100220.97;;;20.39;100.00
4044;BME280;2036;51.578;7.108;2022-07-25T03:16:25;100217.25;;;20.40;100.00
4044;BME280;2036;51.578;7.108;2022-07-25T03:18:54;100220.19;;;20.45;100.00
4044;BME280;2036;51.578;7.108;2022-07-25T03:21:21;100206.66;;;20.47;100.00
4044;BME280;2036;51.578;7.108;2022-07-25T03:23:48;100213.19;;;20.44;100.00
4044;BME280;2036;51.578;7.108;2022-07-25T03:26:15;100214.22;;;20.43;100.00
4044;BME280;2036;51.578;7.108;2022-07-25T03:28:40;100209.25;;;20.40;100.00
4044;BME280;2036;51.578;7.108;2022-07-25T03:31:06;100215.78;;;20.38;100.00
4044;BME280;2036;51.578;7.108;2022-07-25T03:33:32;100205.50;;;20.35;100.00
4044;BME280;2036;51.578;7.108;2022-07-25T03:35:58;100199.38;;;20.34;100.00
4044;BME280;2036;51.578;7.108;2022-07-25T03:38:24;100206.91;;;20.31;100.00
4044;BME280;2036;51.578;7.108;2022-07-25T03:40:50;100196.63;;;20.28;100.00
4044;BME280;2036;51.578;7.108;2022-07-25T03:43:16;100200.94;;;20.29;100.00
4044;BME280;2036;51.578;7.108;2022-07-25T03:45:42;100192.53;;;20.25;100.00
4044;BME280;2036;51.578;7.108;2022-07-25T03:48:07;100189.44;;;20.28;100.00
4044;BME280;2036;51.578;7.108;2022-07-25T03:50:33;100193.16;;;20.27;100.00
4044;BME280;2036;51.578;7.108;2022-07-25T03:52:59;100179.56;;;20.22;100.00
4044;BME280;2036;51.578;7.108;2022-07-25T03:55:25;100169.88;;;20.21;100.00
4044;BME280;2036;51.578;7.108;2022-07-25T03:57:51;100171.19;;;20.25;100.00
4044;BME280;2036;51.578;7.108;2022-07-25T04:00:17;100169.34;;;20.26;100.00
4044;BME280;2036;51.578;7.108;2022-07-25T04:02:43;100173.47;;;20.28;100.00
4044;BME280;2036;51.578;7.108;2022-07-25T04:05:09;100174.75;;;20.32;100.00
4044;BME280;2036;51.578;7.108;2022-07-25T04:07:36;100170.84;;;20.35;100.00
4044;BME280;2036;51.578;7.108;2022-07-25T04:10:04;100161.03;;;20.35;100.00
4044;BME280;2036;51.578;7.108;2022-07-25T04:12:30;100169.47;;;20.39;100.00
4044;BME280;2036;51.578;7.108;2022-07-25T04:14:56;100161.28;;;20.40;100.00
4044;BME280;2036;51.578;7.108;2022-07-25T04:17:22;100159.88;;;20.44;100.00
4044;BME280;2036;51.578;7.108;2022-07-25T04:19:48;100162.44;;;20.53;100.00
4044;BME280;2036;51.578;7.108;2022-07-25T04:22:14;100161.09;;;20.63;100.00
4044;BME280;2036;51.578;7.108;2022-07-25T04:24:40;100153.78;;;20.72;100.00
4044;BME280;2036;51.578;7.108;2022-07-25T04:27:06;100154.97;;;20.97;100.00
4044;BME280;2036;51.578;7.108;2022-07-25T04:29:32;100151.72;;;21.29;100.00
4044;BME280;2036;51.578;7.108;2022-07-25T04:31:57;100152.31;;;21.59;100.00
4044;BME280;2036;51.578;7.108;2022-07-25T04:34:23;100142.72;;;21.77;100.00
4044;BME280;2036;51.578;7.108;2022-07-25T04:36:49;100130.69;;;22.01;100.00
4044;BME280;2036;51.578;7.108;2022-07-25T04:39:15;100139.16;;;22.24;100.00
4044;BME280;2036;51.578;7.108;2022-07-25T04:41:41;100132.41;;;22.55;100.00
4044;BME280;2036;51.578;7.108;2022-07-25T04:44:07;100137.38;;;22.90;100.00
4044;BME280;2036;51.578;7.108;2022-07-25T04:46:33;100130.13;;;23.10;100.00
4044;BME280;2036;51.578;7.108;2022-07-25T04:48:59;100130.28;;;23.35;100.00
4044;BME280;2036;51.578;7.108;2022-07-25T04:51:25;100130.00;;;23.56;100.00
4044;BME280;2036;51.578;7.108;2022-07-25T04:53:51;100133.16;;;23.91;100.00
4044;BME280;2036;51.578;7.108;2022-07-25T04:56:16;100129.31;;;24.18;100.00
4044;BME280;2036;51.578;7.108;2022-07-25T04:58:42;100124.69;;;24.32;100.00
4044;BME280;2036;51.578;7.108;2022-07-25T05:01:08;100124.25;;;24.35;100.00
4044;BME280;2036;51.578;7.108;2022-07-25T05:03:34;100118.78;;;24.23;100.00
4044;BME280;2036;51.578;7.108;2022-07-25T05:06:00;100117.88;;;24.29;100.00
4044;BME280;2036;51.578;7.108;2022-07-25T05:08:27;100121.88;;;24.20;100.00
4044;BME280;2036;51.578;7.108;2022-07-25T05:10:53;100122.72;;;24.14;100.00
4044;BME280;2036;51.578;7.108;2022-07-25T05:13:19;100107.53;;;24.02;100.00
4044;BME280;2036;51.578;7.108;2022-07-25T05:15:45;100115.38;;;23.97;100.00
4044;BME280;2036;51.578;7.108;2022-07-25T05:18:11;100114.56;;;23.96;100.00
4044;BME280;2036;51.578;7.108;2022-07-25T05:20:37;100105.31;;;23.92;100.00
4044;BME280;2036;51.578;7.108;2022-07-25T05:23:03;100105.78;;;23.83;100.00
4044;BME280;2036;51.578;7.108;2022-07-25T05:25:28;100105.97;;;23.88;100.00
4044;BME280;2036;51.578;7.108;2022-07-25T05:27:54;100099.53;;;23.95;100.00
4044;BME280;2036;51.578;7.108;2022-07-25T05:30:24;100104.84;;;24.08;100.00
4044;BME280;2036;51.578;7.108;2022-07-25T05:32:50;100101.69;;;24.18;100.00
4044;BME280;2036;51.578;7.108;2022-07-25T05:35:15;100095.16;;;24.32;100.00
4044;BME280;2036;51.578;7.108;2022-07-25T05:37:41;100097.38;;;24.41;100.00
4044;BME280;2036;51.578;7.108;2022-07-25T05:40:07;100096.06;;;24.51;100.00
4044;BME280;2036;51.578;7.108;2022-07-25T05:42:34;100100.03;;;24.66;100.00
4044;BME280;2036;51.578;7.108;2022-07-25T05:45:01;100099.22;;;24.90;100.00
4044;BME280;2036;51.578;7.108;2022-07-25T05:47:28;100093.06;;;25.08;100.00
4044;BME280;2036;51.578;7.108;2022-07-25T05:49:53;100097.28;;;25.15;100.00
4044;BME280;2036;51.578;7.108;2022-07-25T05:52:19;100085.97;;;25.13;100.00
4044;BME280;2036;51.578;7.108;2022-07-25T05:54:45;100092.97;;;25.33;100.00
4044;BME280;2036;51.578;7.108;2022-07-25T05:57:11;100084.81;;;25.39;100.00
4044;BME280;2036;51.578;7.108;2022-07-25T05:59:37;100092.38;;;25.31;100.00
4044;BME280;2036;51.578;7.108;2022-07-25T06:02:03;100088.88;;;25.30;100.00
4044;BME280;2036;51.578;7.108;2022-07-25T06:04:29;100082.59;;;25.36;100.00
4044;BME280;2036;51.578;7.108;2022-07-25T06:06:55;100088.28;;;25.28;100.00
4044;BME280;2036;51.578;7.108;2022-07-25T06:09:22;100084.75;;;25.28;100.00
4044;BME280;2036;51.578;7.108;2022-07-25T06:11:52;100086.94;;;25.19;100.00
4044;BME280;2036;51.578;7.108;2022-07-25T06:14:18;100085.00;;;25.26;100.00
4044;BME280;2036;51.578;7.108;2022-07-25T06:16:44;100080.22;;;25.28;100.00
4044;BME280;2036;51.578;7.108;2022-07-25T06:19:10;100074.50;;;25.25;100.00
4044;BME280;2036;51.578;7.108;2022-07-25T06:21:36;100070.75;;;25.26;100.00
4044;BME280;2036;51.578;7.108;2022-07-25T06:24:03;100061.84;;;25.25;100.00
4044;BME280;2036;51.578;7.108;2022-07-25T06:26:29;100070.28;;;25.29;100.00
4044;BME280;2036;51.578;7.108;2022-07-25T06:28:55;100061.78;;;25.32;100.00
4044;BME280;2036;51.578;7.108;2022-07-25T06:31:21;100070.59;;;25.39;100.00
4044;BME280;2036;51.578;7.108;2022-07-25T06:33:47;100064.34;;;25.45;100.00
4044;BME280;2036;51.578;7.108;2022-07-25T06:36:12;100071.28;;;25.52;100.00
4044;BME280;2036;51.578;7.108;2022-07-25T06:38:39;100063.94;;;25.59;100.00
4044;BME280;2036;51.578;7.108;2022-07-25T06:41:05;100060.91;;;25.67;100.00
4044;BME280;2036;51.578;7.108;2022-07-25T06:43:30;100064.47;;;25.79;100.00
4044;BME280;2036;51.578;7.108;2022-07-25T06:45:56;100064.88;;;25.95;100.00
4044;BME280;2036;51.578;7.108;2022-07-25T06:48:22;100071.94;;;26.07;100.00
4044;BME280;2036;51.578;7.108;2022-07-25T06:50:51;100065.69;;;26.25;100.00
4044;BME280;2036;51.578;7.108;2022-07-25T06:53:17;100066.41;;;26.43;100.00
4044;BME280;2036;51.578;7.108;2022-07-25T06:55:43;100068.53;;;26.53;100.00
4044;BME280;2036;51.578;7.108;2022-07-25T06:58:10;100069.13;;;26.78;100.00
4044;BME280;2036;51.578;7.108;2022-07-25T07:00:35;100062.94;;;26.89;100.00
4044;BME280;2036;51.578;7.108;2022-07-25T07:03:01;100066.66;;;26.88;100.00
4044;BME280;2036;51.578;7.108;2022-07-25T07:05:31;100070.06;;;26.95;100.00
4044;BME280;2036;51.578;7.108;2022-07-25T07:07:58;100070.16;;;27.00;100.00
4044;BME280;2036;51.578;7.108;2022-07-25T07:10:24;100066.31;;;27.08;100.00
4044;BME280;2036;51.578;7.108;2022-07-25T07:13:01;100065.59;;;27.01;100.00
4044;BME280;2036;51.578;7.108;2022-07-25T07:15:28;100062.91;;;27.01;100.00
4044;BME280;2036;51.578;7.108;2022-07-25T07:17:53;100061.84;;;27.02;99.97
4044;BME280;2036;51.578;7.108;2022-07-25T07:20:19;100061.63;;;27.03;100.00
4044;BME280;2036;51.578;7.108;2022-07-25T07:22:47;100067.47;;;27.12;100.00
4044;BME280;2036;51.578;7.108;2022-07-25T07:25:18;100053.69;;;27.25;100.00
4044;BME280;2036;51.578;7.108;2022-07-25T07:27:46;100055.34;;;27.38;99.83
4044;BME280;2036;51.578;7.108;2022-07-25T07:30:13;100059.44;;;27.40;100.00
4044;BME280;2036;51.578;7.108;2022-07-25T07:32:42;100048.63;;;27.52;99.94
4044;BME280;2036;51.578;7.108;2022-07-25T07:35:11;100051.38;;;27.68;100.00
4044;BME280;2036;51.578;7.108;2022-07-25T07:37:37;100039.88;;;27.90;99.97
4044;BME280;2036;51.578;7.108;2022-07-25T07:40:04;100044.44;;;28.17;100.00
4044;BME280;2036;51.578;7.108;2022-07-25T07:42:41;100030.91;;;28.51;98.81
4044;BME280;2036;51.578;7.108;2022-07-25T07:45:22;100043.34;;;29.06;100.00
4044;BME280;2036;51.578;7.108;2022-07-25T07:47:50;100046.31;;;29.48;84.40
4044;BME280;2036;51.578;7.108;2022-07-25T07:50:19;100039.44;;;29.84;93.01
4044;BME280;2036;51.578;7.108;2022-07-25T07:52:46;100037.81;;;30.20;86.06
4044;BME280;2036;51.578;7.108;2022-07-25T07:55:13;100034.34;;;30.56;79.09
4044;BME280;2036;51.578;7.108;2022-07-25T07:57:59;100038.66;;;30.94;73.27
4044;BME280;2036;51.578;7.108;2022-07-25T08:00:27;100046.56;;;31.05;68.08
4044;BME280;2036;51.578;7.108;2022-07-25T08:02:54;100031.44;;;31.15;64.55
4044;BME280;2036;51.578;7.108;2022-07-25T08:05:29;100034.97;;;31.20;66.92
4044;BME280;2036;51.578;7.108;2022-07-25T08:07:56;100037.38;;;31.11;62.69
4044;BME280;2036;51.578;7.108;2022-07-25T08:10:25;100035.16;;;30.98;61.04
4044;BME280;2036;51.578;7.108;2022-07-25T08:12:52;100030.16;;;30.80;63.51
4044;BME280;2036;51.578;7.108;2022-07-25T08:15:20;100031.94;;;30.65;64.08
4044;BME280;2036;51.578;7.108;2022-07-25T08:17:47;100034.84;;;30.53;65.85
4044;BME280;2036;51.578;7.108;2022-07-25T08:20:18;100038.97;;;30.61;67.76
4044;BME280;2036;51.578;7.108;2022-07-25T08:22:47;100034.66;;;30.65;66.44
4044;BME280;2036;51.578;7.108;2022-07-25T08:25:19;100039.34;;;30.79;64.53
4044;BME280;2036;51.578;7.108;2022-07-25T08:27:45;100040.81;;;30.92;65.47
4044;BME280;2036;51.578;7.108;2022-07-25T08:30:13;100041.16;;;31.05;63.57
4044;BME280;2036;51.578;7.108;2022-07-25T08:33:05;100042.41;;;31.45;66.02
4044;BME280;2036;51.578;7.108;2022-07-25T08:35:33;100046.59;;;31.93;72.32
4044;BME280;2036;51.578;7.108;2022-07-25T08:38:00;100055.31;;;32.10;64.34
4044;BME280;2036;51.578;7.108;2022-07-25T08:40:28;100049.59;;;32.01;60.18
4044;BME280;2036;51.578;7.108;2022-07-25T08:42:56;100050.97;;;32.09;62.50
4044;BME280;2036;51.578;7.108;2022-07-25T08:45:25;100055.59;;;32.03;58.69
4044;BME280;2036;51.578;7.108;2022-07-25T08:47:52;100051.25;;;32.02;59.46
4044;BME280;2036;51.578;7.108;2022-07-25T08:50:27;100047.41;;;31.93;59.41
4044;BME280;2036;51.578;7.108;2022-07-25T08:52:53;100048.22;;;31.89;58.57
4044;BME280;2036;51.578;7.108;2022-07-25T08:55:23;100057.69;;;31.81;57.99
4044;BME280;2036;51.578;7.108;2022-07-25T08:57:51;100046.31;;;31.89;58.96
4044;BME280;2036;51.578;7.108;2022-07-25T09:00:21;100040.06;;;31.94;59.88
4044;BME280;2036;51.578;7.108;2022-07-25T09:02:58;100048.44;;;31.67;58.10
4044;BME280;2036;51.578;7.108;2022-07-25T09:05:27;100043.81;;;31.62;59.15
4044;BME280;2036;51.578;7.108;2022-07-25T09:07:54;100040.28;;;31.57;60.91
4044;BME280;2036;51.578;7.108;2022-07-25T09:10:27;100031.75;;;31.23;58.24
4044;BME280;2036;51.578;7.108;2022-07-25T09:13:15;100045.63;;;30.85;57.63
4044;BME280;2036;51.578;7.108;2022-07-25T09:15:53;100054.06;;;30.88;58.67
4044;BME280;2036;51.578;7.108;2022-07-25T09:18:26;100040.03;;;30.96;60.15
4044;BME280;2036;51.578;7.108;2022-07-25T09:20:58;100043.69;;;31.27;59.73
4044;BME280;2036;51.578;7.108;2022-07-25T09:26:13;100041.69;;;32.70;58.41
4044;BME280;2036;51.578;7.108;2022-07-25T09:28:41;100040.34;;;33.47;62.22
4044;BME280;2036;51.578;7.108;2022-07-25T09:31:08;100045.25;;;33.94;55.83
4044;BME280;2036;51.578;7.108;2022-07-25T09:33:51;100041.84;;;34.46;54.78
4044;BME280;2036;51.578;7.108;2022-07-25T09:36:19;100028.66;;;34.81;52.46
4044;BME280;2036;51.578;7.108;2022-07-25T09:39:00;100045.91;;;35.24;52.74
4044;BME280;2036;51.578;7.108;2022-07-25T09:41:38;100041.47;;;35.52;52.84
4044;BME280;2036;51.578;7.108;2022-07-25T09:44:24;100045.22;;;35.75;51.47
4044;BME280;2036;51.578;7.108;2022-07-25T09:46:57;100036.81;;;35.71;48.85
4044;BME280;2036;51.578;7.108;2022-07-25T09:49:41;100045.44;;;35.78;48.77
4044;BME280;2036;51.578;7.108;2022-07-25T09:52:09;100051.25;;;35.90;49.12
4044;BME280;2036;51.578;7.108;2022-07-25T09:54:35;100062.13;;;35.77;48.38
4044;BME280;2036;51.578;7.108;2022-07-25T09:57:02;100057.31;;;35.68;49.72
4044;BME280;2036;51.578;7.108;2022-07-25T09:59:27;100039.63;;;35.66;49.83
4044;BME280;2036;51.578;7.108;2022-07-25T10:02:42;100050.88;;;35.41;47.62
4044;BME280;2036;51.578;7.108;2022-07-25T10:07:46;100065.13;;;34.90;48.15
4044;BME280;2036;51.578;7.108;2022-07-25T10:10:28;100061.81;;;34.36;47.73
4044;BME280;2036;51.578;7.108;2022-07-25T10:13:09;100075.69;;;34.01;48.46
4044;BME280;2036;51.578;7.108;2022-07-25T10:15:51;100071.38;;;33.56;49.19
4044;BME280;2036;51.578;7.108;2022-07-25T10:18:26;100080.41;;;33.36;50.20
4044;BME280;2036;51.578;7.108;2022-07-25T10:21:09;100090.81;;;33.14;50.81
4044;BME280;2036;51.578;7.108;2022-07-25T10:23:35;100094.69;;;32.78;51.03
4044;BME280;2036;51.578;7.108;2022-07-25T10:28:46;100095.75;;;31.96;52.49
4044;BME280;2036;51.578;7.108;2022-07-25T10:34:10;100087.91;;;31.33;53.92
4044;BME280;2036;51.578;7.108;2022-07-25T10:36:49;100088.94;;;31.22;54.04
4044;BME280;2036;51.578;7.108;2022-07-25T10:39:18;100092.56;;;31.42;55.73
4044;BME280;2036;51.578;7.108;2022-07-25T10:41:54;100092.59;;;31.47;55.99
4044;BME280;2036;51.578;7.108;2022-07-25T10:44:20;100093.75;;;31.61;55.49
4044;BME280;2036;51.578;7.108;2022-07-25T10:46:47;100094.09;;;31.95;56.22
4044;BME280;2036;51.578;7.108;2022-07-25T10:49:19;100089.81;;;32.34;55.18
4044;BME280;2036;51.578;7.108;2022-07-25T10:52:03;100097.72;;;32.51;53.95
4044;BME280;2036;51.578;7.108;2022-07-25T10:54:36;100095.47;;;32.93;53.34
4044;BME280;2036;51.578;7.108;2022-07-25T10:57:04;100096.19;;;33.34;52.33
4044;BME280;2036;51.578;7.108;2022-07-25T10:59:36;100091.69;;;33.68;52.58
4044;BME280;2036;51.578;7.108;2022-07-25T11:02:05;100079.31;;;33.91;50.18
4044;BME280;2036;51.578;7.108;2022-07-25T11:04:33;100070.38;;;34.24;49.46
4044;BME280;2036;51.578;7.108;2022-07-25T11:07:15;100072.69;;;34.41;50.19
4044;BME280;2036;51.578;7.108;2022-07-25T11:09:56;100082.06;;;34.59;48.49
4044;BME280;2036;51.578;7.108;2022-07-25T11:12:22;100079.28;;;34.92;47.15
4044;BME280;2036;51.578;7.108;2022-07-25T11:14:48;100082.50;;;35.23;47.71
4044;BME280;2036;51.578;7.108;2022-07-25T11:17:22;100074.53;;;35.50;47.13
4044;BME280;2036;51.578;7.108;2022-07-25T11:20:04;100074.75;;;35.54;46.15
4044;BME280;2036;51.578;7.108;2022-07-25T11:22:31;100078.72;;;35.61;45.62
4044;BME280;2036;51.578;7.108;2022-07-25T11:24:58;100086.28;;;35.69;42.98
4044;BME280;2036;51.578;7.108;2022-07-25T11:27:31;100094.25;;;35.66;43.61
4044;BME280;2036;51.578;7.108;2022-07-25T11:30:13;100096.81;;;35.34;43.29
4044;BME280;2036;51.578;7.108;2022-07-25T11:35:10;100092.19;;;34.82;44.42
4044;BME280;2036;51.578;7.108;2022-07-25T11:37:40;100094.69;;;34.50;44.39
4044;BME280;2036;51.578;7.108;2022-07-25T11:40:08;100098.13;;;34.60;45.39
4044;BME280;2036;51.578;7.108;2022-07-25T11:45:23;100114.84;;;35.35;46.56
4044;BME280;2036;51.578;7.108;2022-07-25T11:48:05;100110.78;;;35.56;44.84
4044;BME280;2036;51.578;7.108;2022-07-25T11:50:35;100114.19;;;36.04;44.95
4044;BME280;2036;51.578;7.108;2022-07-25T11:53:04;100113.94;;;36.37;44.16
4044;BME280;2036;51.578;7.108;2022-07-25T11:55:34;100107.34;;;36.25;43.82
4044;BME280;2036;51.578;7.108;2022-07-25T11:58:12;100115.63;;;36.20;44.15
4044;BME280;2036;51.578;7.108;2022-07-25T12:00:42;100114.75;;;36.06;44.05
4044;BME280;2036;51.578;7.108;2022-07-25T12:03:16;100107.06;;;36.08;43.24
4044;BME280;2036;51.578;7.108;2022-07-25T12:05:43;100114.66;;;36.11;42.67
4044;BME280;2036;51.578;7.108;2022-07-25T12:08:19;100112.41;;;36.31;44.19
4044;BME280;2036;51.578;7.108;2022-07-25T12:10:47;100106.16;;;35.94;43.18
4044;BME280;2036;51.578;7.108;2022-07-25T12:13:28;100105.53;;;35.59;42.60
4044;BME280;2036;51.578;7.108;2022-07-25T12:15:56;100124.38;;;35.14;43.64
4044;BME280;2036;51.578;7.108;2022-07-25T12:18:22;100120.66;;;34.37;44.14
4044;BME280;2036;51.578;7.108;2022-07-25T12:20:48;100124.03;;;34.29;43.82
4044;BME280;2036;51.578;7.108;2022-07-25T12:23:14;100114.38;;;34.08;44.29
4044;BME280;2036;51.578;7.108;2022-07-25T12:25:43;100121.53;;;33.89;44.47
4044;BME280;2036;51.578;7.108;2022-07-25T12:28:10;100131.78;;;33.48;45.15
4044;BME280;2036;51.578;7.108;2022-07-25T12:30:38;100135.75;;;33.01;45.38
4044;BME280;2036;51.578;7.108;2022-07-25T12:33:05;100131.94;;;32.67;45.92
4044;BME280;2036;51.578;7.108;2022-07-25T12:35:31;100131.94;;;32.42;46.51
4044;BME280;2036;51.578;7.108;2022-07-25T12:37:57;100132.19;;;32.35;47.43
4044;BME280;2036;51.578;7.108;2022-07-25T12:40:24;100133.88;;;32.57;48.32
4044;BME280;2036;51.578;7.108;2022-07-25T12:42:50;100125.41;;;33.03;48.43
4044;BME280;2036;51.578;7.108;2022-07-25T12:45:16;100131.50;;;33.49;47.60
4044;BME280;2036;51.578;7.108;2022-07-25T12:47:45;100141.63;;;33.39;47.44
4044;BME280;2036;51.578;7.108;2022-07-25T12:50:12;100141.66;;;33.29;47.29
4044;BME280;2036;51.578;7.108;2022-07-25T12:52:39;100140.56;;;33.25;47.94
4044;BME280;2036;51.578;7.108;2022-07-25T12:55:08;100131.56;;;33.34;48.38
4044;BME280;2036;51.578;7.108;2022-07-25T12:57:35;100138.38;;;33.32;48.16
4044;BME280;2036;51.578;7.108;2022-07-25T13:00:06;100143.00;;;33.26;48.56
4044;BME280;2036;51.578;7.108;2022-07-25T13:02:32;100134.09;;;33.11;48.95
4044;BME280;2036;51.578;7.108;2022-07-25T13:04:58;100145.00;;;32.80;49.26
4044;BME280;2036;51.578;7.108;2022-07-25T13:07:24;100146.34;;;32.48;50.34
4044;BME280;2036;51.578;7.108;2022-07-25T13:09:50;100146.88;;;32.34;50.73
4044;BME280;2036;51.578;7.108;2022-07-25T13:12:16;100148.47;;;32.15;51.66
4044;BME280;2036;51.578;7.108;2022-07-25T13:14:42;100146.56;;;32.01;53.20
4044;BME280;2036;51.578;7.108;2022-07-25T13:17:08;100149.03;;;32.32;53.55
4044;BME280;2036;51.578;7.108;2022-07-25T13:19:35;100155.06;;;32.50;53.60
4044;BME280;2036;51.578;7.108;2022-07-25T13:22:01;100148.00;;;32.69;53.07
4044;BME280;2036;51.578;7.108;2022-07-25T13:24:27;100154.50;;;32.42;53.49
4044;BME280;2036;51.578;7.108;2022-07-25T13:26:53;100150.66;;;32.18;54.18